To NAV CANADA Home Page Login to a new session Search on AWWS site Feedback and Comments Disclaimer Vers la page française équivalente Tips FAQ What's new on the site To the Forecasts and Observations / NOTAM section To "File a Flight Plan" website Publications and other links Update of the User's profile FIC Telephone Numbers My Weather Data Folder Route Weather Data Regional Weather Data Local Weather Data To the Forecasts and Observations / NOTAM section
Request Generated 07/06/2015 at 22:19:57 UTC . Weather information available at that time is displayed.

METAR/TAF

SCHEFFERVILLE/QC    (show WxCam)

METAR CYKL 062200Z AUTO 18010KT 130V200 9SM FEW100 BKN140 22/09 A2988
RMK SLP125 DENSITY ALT 2900FT=
METAR CYKL 062100Z AUTO 16012KT 9SM FEW120 BKN140 BKN160 22/10 A2989
RMK SLP128 DENSITY ALT 2900FT=
SPECI CYKL 062023Z AUTO 17009G16KT 9SM FEW100 BKN170 22/10 A2990 RMK
SLP134 DENSITY ALT 2900FT=
SPECI CYKL 062012Z AUTO 18008KT 9SM -RA FEW100 BKN120 BKN160 22/11
A2991 RMK SLP137 DENSITY ALT 2800FT=
METAR CYKL 062000Z AUTO 18009G16KT 9SM FEW065 SCT099 BKN120 22/11
A2992 RMK SLP139 DENSITY ALT 2800FT=

TAF CYKL 061939Z 0620/0708 17012G22KT P6SM FEW050 BKN180
FM070400 20012G22KT P6SM -SHRA OVC050 TEMPO 0704/0708 5SM -SHRA
BR OVC015
RMK FCST BASED ON AUTO OBS. NXT FCST BY 070200Z=
Your time UTC time
Weather data provided by Environment Canada and NAV CANADA